Friday, April 29, 2016
15:58 UTC
  |  Log In   |  Register Free
Airport Search:

Boulder Municipal Airport
(KBDU)

Boulder Municipal Airport Diagram
No Airport Diagram Available

FAA data valid effective Mar 31 2016 - May 26 2016 (unless otherwise noted).

 
 
 
 
 
 
 
 
 
 
 
 
 
 
Summary: Boulder Municipal (BDU)

Weather Summary


METAR for KBDU is not available. Closest METAR is for KLMO
KBDU  (most recent observation was updatred at 29:14 UTC)
291416Z AUTO 00000KT 3SM -SN OVC003 01/01 A2997 RMK AO2

KLMO  (8.0 nm SW)   (most recent observation was updated at 29:14 UTC)
291415Z AUTO 05003KT 3SM -SN OVC006 02/01 A3000 RMK AO2 P0001 T00200013

KEIK  (8.4 nm NW)   (most recent observation was updated at 29:14 UTC)
291415Z AUTO 00000KT 1 1/4SM -SN OVC003 01/01 A2998 RMK AO2 T00050005

TAF for KBDU is not available.
KBJC  (9.3 nm NW)   (most recent observation was updatred at 29:12 UTC)
AMD 291213Z 2912/3012 04005KT 1 1/2SM -SN BR BKN006 OVC010 TEMPO 2912/2915 3/4SM -SN BR VV002 FM291500 04007KT 3/4SM -SN BR OVC004 FM292200 02011KT 1 1/2SM -SN BR OVC009 FM300100 34010KT 2SM -SN BR BKN005 OVC010 FM300500 34010KT 4SM -SN BR BKN007 OVC011


GlobalAir.com is loading additional information.
 Current Weather at BDU
34.0 F° (1.0 C°)
Light Snow
North winds at 3.5 mph
Pressure:
29.97 in
Humidity:
100%
Wind:
North at 3.5 MPH (3 KT)
Dew Point:
33.8 F° (1.0 C°)
Visibility:
4.00 mi
BDU NOAA Radar

Runway Summary

ID Dimensions Surface Instrument Approaches
08/26 75 ft x 4100 ft Asphalt, Good Condition N/A
08G/26G 20 ft x 4100 ft Asphalt or Turf, Fair Condition N/A

Communications Summary


CTAF122.725
UNICOM122.725
ATISN/A
WX AWOS-3
CLEARANCE DELIVERYN/A

Terminal Procedures Summary


No terminal procedures available for BDU





Closest Alternate Airports with Instrument Procedures

KLMO - Vance Brand - 9.2 nm NE from BDU

KEIK - Erie Municipal - 9.6 nm SE from BDU

KBJC - Rocky Mountain Metropolitan - 10.7 nm SE from BDU

KFNL - Fort Collins-Loveland Municipal - 30.7 nm NE from BDU

KDEN - Denver International - 31.8 nm SE from BDU

KAPA - Centennial - 38.1 nm SE from BDU

KFTG - Front Range - 40.3 nm SE from BDU

KGXY - Greeley-Weld County - 41.7 nm NE from BDU

K20V - Mc Elroy Airfield - 60.5 nm NW from BDU

KCYS - Cheyenne Regional/Jerry Olson Field - 80.2 nm NE from BDU

Find All Airport Services Find A Hotel Find A Rental Car Find A Golf Course Find A Restaurant $100 Hamburger



FBO's on the Field
FBO Company Facility Photos Services Transportation Aviation Fuel Prices: Prices include tax
Catering Weather Repair Courtesy Rental Type 100LL JetA JetA+ MOGAS 8087
 
Journeys Aviation

Currently rated 5 by 1 person
FS:Phillips 66
Last Updated: Apr-23
Login to update fuel prices
SS:
Contact Journeys AviationMore FBO Information
 
Add another FBO Facility Photos Catering Weather Repair Courtesy Rental Type 100LL JetA JetA+ MOGAS 8087
Services Transportation Aviation Fuel Prices: Prices include tax


model-print
model-print
model-print
model-print